Time;durP1;ratioP1;P1;durP2;ratioP2;P2;SDS_P1;SDS_P2;PMS_P1;PMS_P2;Temp;Humidity;BMP_temperature;BMP_pressure;BME280_temperature;BME280_humidity;BME280_pressure;Samples;Min_cycle;Max_cycle;Signal;HPM_P1;HPM_P2
2023/04/26 00:00:21;;;;;;;8.30;1.48;;;4.30;99.90;;;;;;5109901;27;20041;-77
2023/04/26 00:02:47;;;;;;;5.93;1.30;;;4.30;99.90;;;;;;5109845;27;20174;-77
2023/04/26 00:05:14;;;;;;;7.80;1.83;;;4.20;99.90;;;;;;5093481;27;20090;-77
2023/04/26 00:07:41;;;;;;;5.82;1.42;;;4.20;99.90;;;;;;5110567;27;20091;-77
2023/04/26 00:10:08;;;;;;;8.75;1.80;;;4.20;99.90;;;;;;5109629;27;20047;-76
2023/04/26 00:12:35;;;;;;;8.77;1.98;;;4.20;99.90;;;;;;5093135;27;20051;-77
2023/04/26 00:15:01;;;;;;;5.32;1.50;;;5.10;99.90;;;;;;5076431;27;20274;-77
2023/04/26 00:17:29;;;;;;;5.68;1.13;;;4.10;99.90;;;;;;5109772;27;20051;-77
2023/04/26 00:19:56;;;;;;;11.70;1.58;;;4.20;99.90;;;;;;5110002;27;20051;-77
2023/04/26 00:22:22;;;;;;;12.43;1.67;;;4.20;99.90;;;;;;5092844;27;20136;-77
2023/04/26 00:24:48;;;;;;;9.38;1.63;;;4.30;99.90;;;;;;5093472;27;20146;-77
2023/04/26 00:27:13;;;;;;;10.40;2.03;;;4.40;99.90;;;;;;5109215;27;20121;-77
2023/04/26 00:29:39;;;;;;;12.27;1.30;;;4.50;99.90;;;;;;5128484;27;20039;-77
2023/04/26 00:32:05;;;;;;;12.85;1.73;;;4.40;99.90;;;;;;5109756;27;20058;-77
2023/04/26 00:34:35;;;;;;;6.95;1.48;;;3.20;99.90;;;;;;5109746;27;20043;-77
2023/04/26 00:37:01;;;;;;;7.90;1.42;;;4.40;99.90;;;;;;5109627;27;20054;-77
2023/04/26 00:39:30;;;;;;;9.00;1.63;;;4.40;99.90;;;;;;5092354;27;20104;-77
2023/04/26 00:41:56;;;;;;;5.18;1.67;;;4.40;99.90;;;;;;5109882;27;20396;-77
2023/04/26 00:44:22;;;;;;;7.38;1.65;;;4.30;99.90;;;;;;5109033;27;20108;-77
2023/04/26 00:46:50;;;;;;;7.95;1.27;;;4.30;99.90;;;;;;5109392;27;20047;-77
2023/04/26 00:49:20;;;;;;;9.30;1.65;;;4.20;99.90;;;;;;5109392;27;20051;-77
2023/04/26 00:51:47;;;;;;;4.53;1.30;;;4.20;99.90;;;;;;5109246;27;20039;-77
2023/04/26 00:54:13;;;;;;;12.93;2.42;;;4.10;99.90;;;;;;5109985;27;20145;-77
2023/04/26 00:56:39;;;;;;;11.07;1.25;;;5.50;99.90;;;;;;5092510;27;20066;-76
2023/04/26 00:59:05;;;;;;;5.82;1.73;;;4.10;99.90;;;;;;5108472;27;20051;-76
2023/04/26 01:01:31;;;;;;;10.68;2.00;;;4.10;99.90;;;;;;5108649;27;20043;-77
2023/04/26 01:04:00;;;;;;;4.80;1.00;;;4.10;99.90;;;;;;5109574;27;20054;-77
2023/04/26 01:06:32;;;;;;;5.00;1.38;;;4.10;99.90;;;;;;5127635;27;20039;-77
2023/04/26 01:09:00;;;;;;;7.67;1.77;;;4.10;99.90;;;;;;5127539;27;20043;-77
2023/04/26 01:11:26;;;;;;;8.48;1.30;;;4.20;99.90;;;;;;5127778;27;20131;-76
2023/04/26 01:13:52;;;;;;;13.95;2.42;;;4.20;99.90;;;;;;5108594;27;20067;-77
2023/04/26 01:16:19;;;;;;;8.85;1.77;;;3.00;99.90;;;;;;5108686;27;20047;-76
2023/04/26 01:18:51;;;;;;;7.03;1.50;;;4.20;99.90;;;;;;5108231;27;20478;-77
2023/04/26 01:21:21;;;;;;;9.00;1.77;;;4.10;99.90;;;;;;5109580;27;20054;-76
2023/04/26 01:23:51;;;;;;;4.97;1.80;;;4.50;99.90;;;;;;5108287;27;20051;-76
2023/04/26 01:26:17;;;;;;;7.75;1.60;;;4.20;99.90;;;;;;5108400;27;20561;-77
2023/04/26 01:28:45;;;;;;;9.90;1.88;;;4.20;99.90;;;;;;5108757;27;20521;-77
2023/04/26 01:31:11;;;;;;;9.32;2.72;;;4.20;99.90;;;;;;5091263;27;20046;-77
2023/04/26 01:33:36;;;;;;;8.00;1.25;;;4.30;99.90;;;;;;5108286;27;20051;-77
2023/04/26 01:36:06;;;;;;;11.38;1.70;;;4.30;99.90;;;;;;5108281;27;20085;-77
2023/04/26 01:38:32;;;;;;;10.25;2.17;;;4.40;99.90;;;;;;5108340;27;20039;-77
2023/04/26 01:41:03;;;;;;;7.10;2.15;;;4.40;99.90;;;;;;5090939;27;20058;-77
2023/04/26 01:43:28;;;;;;;5.15;1.40;;;4.60;99.90;;;;;;5108083;27;20129;-77
2023/04/26 01:45:54;;;;;;;7.80;1.45;;;4.40;99.90;;;;;;5107759;27;20118;-76
2023/04/26 01:48:20;;;;;;;5.95;1.77;;;4.30;99.90;;;;;;5107799;27;20285;-77
2023/04/26 01:50:46;;;;;;;12.60;1.40;;;4.30;99.90;;;;;;5107884;27;20047;-77
2023/04/26 01:53:12;;;;;;;3.40;1.25;;;4.30;99.90;;;;;;5106982;27;20051;-77
2023/04/26 01:55:37;;;;;;;4.32;1.60;;;4.30;99.90;;;;;;5091266;27;20083;-77
2023/04/26 01:58:03;;;;;;;6.25;1.48;;;4.40;99.90;;;;;;5107459;27;20082;-77
2023/04/26 02:00:29;;;;;;;12.23;2.45;;;4.40;99.90;;;;;;5091138;27;20051;-76
2023/04/26 02:02:55;;;;;;;4.50;1.58;;;5.20;99.90;;;;;;5126692;27;20042;-77
2023/04/26 02:05:21;;;;;;;7.43;1.85;;;4.40;99.90;;;;;;5125821;27;20047;-77
2023/04/26 02:07:47;;;;;;;5.93;1.92;;;4.40;99.90;;;;;;5090863;27;20040;-76
2023/04/26 02:10:13;;;;;;;5.38;1.38;;;4.40;99.90;;;;;;5124605;27;20062;-76
2023/04/26 02:12:38;;;;;;;9.75;1.83;;;4.30;99.90;;;;;;5107670;27;20085;-76
2023/04/26 02:15:05;;;;;;;6.75;2.58;;;4.30;99.90;;;;;;5107398;27;20062;-76
2023/04/26 02:17:32;;;;;;;4.40;1.40;;;4.30;99.90;;;;;;5107361;27;20058;-76
2023/04/26 02:19:58;;;;;;;4.45;1.60;;;5.20;99.90;;;;;;5107351;27;20164;-77
2023/04/26 02:22:24;;;;;;;5.97;1.85;;;5.10;99.90;;;;;;5107254;27;20122;-76
2023/04/26 02:24:51;;;;;;;6.57;1.88;;;4.20;99.90;;;;;;5107316;27;20043;-76
2023/04/26 02:27:17;;;;;;;10.23;1.95;;;4.20;99.90;;;;;;5125370;27;20043;-76
2023/04/26 02:29:43;;;;;;;12.80;2.80;;;4.20;99.90;;;;;;5126210;27;20395;-76
2023/04/26 02:32:09;;;;;;;7.75;1.60;;;5.70;99.90;;;;;;5125478;27;20138;-76
2023/04/26 02:34:35;;;;;;;12.68;1.77;;;4.20;99.90;;;;;;5125420;27;20047;-76
2023/04/26 02:37:03;;;;;;;9.95;1.30;;;4.30;99.90;;;;;;5107227;27;20122;-77
2023/04/26 02:39:29;;;;;;;3.40;1.15;;;4.20;99.90;;;;;;5126148;27;20043;-76
2023/04/26 02:41:54;;;;;;;8.32;1.30;;;4.20;99.90;;;;;;5126058;27;20478;-76
2023/04/26 02:44:20;;;;;;;4.40;1.25;;;4.20;99.90;;;;;;5106379;27;20430;-76
2023/04/26 02:46:46;;;;;;;5.78;1.35;;;4.10;99.90;;;;;;5107255;27;20139;-76
2023/04/26 02:49:11;;;;;;;25.73;5.07;;;4.40;99.90;;;;;;5125175;27;20131;-76
2023/04/26 02:51:37;;;;;;;4.95;1.23;;;4.10;99.90;;;;;;5107276;28;20125;-76
2023/04/26 02:54:03;;;;;;;8.27;1.70;;;4.10;99.90;;;;;;5089847;28;20454;-76
2023/04/26 02:56:29;;;;;;;11.52;1.40;;;4.00;99.90;;;;;;5106301;28;20051;-76
2023/04/26 02:58:55;;;;;;;5.88;1.13;;;4.00;99.90;;;;;;5107250;28;20405;-76
2023/04/26 03:01:20;;;;;;;7.25;1.33;;;4.10;99.90;;;;;;5106862;28;20040;-76
2023/04/26 03:03:46;;;;;;;9.50;1.42;;;4.10;99.90;;;;;;5107194;28;20039;-76
2023/04/26 03:06:12;;;;;;;3.55;1.10;;;4.90;99.90;;;;;;5106223;28;20043;-76
2023/04/26 03:08:37;;;;;;;5.32;1.20;;;4.10;99.90;;;;;;5106947;28;20054;-76
2023/04/26 03:11:03;;;;;;;7.38;1.40;;;4.10;99.90;;;;;;5089712;28;20047;-76
2023/04/26 03:13:29;;;;;;;15.05;1.80;;;4.10;99.90;;;;;;5106392;28;20047;-76
2023/04/26 03:15:54;;;;;;;10.82;1.73;;;4.20;99.90;;;;;;5125260;28;20096;-76
2023/04/26 03:18:20;;;;;;;9.98;1.77;;;4.20;99.90;;;;;;5125317;28;20043;-76
2023/04/26 03:20:46;;;;;;;8.48;1.40;;;4.20;99.90;;;;;;5108191;27;20077;-76
2023/04/26 03:23:11;;;;;;;6.40;1.23;;;4.30;99.90;;;;;;5110599;27;20436;-76
2023/04/26 03:25:37;;;;;;;5.57;1.15;;;5.70;99.90;;;;;;5129755;27;20089;-76
2023/04/26 03:28:03;;;;;;;7.68;1.40;;;4.30;99.90;;;;;;5110319;27;20047;-76
2023/04/26 03:30:29;;;;;;;8.82;1.40;;;4.30;99.90;;;;;;5110618;27;20466;-76
2023/04/26 03:32:55;;;;;;;12.80;1.83;;;4.30;99.90;;;;;;5129619;27;20043;-76
2023/04/26 03:35:20;;;;;;;11.57;3.72;;;4.30;99.90;;;;;;5128756;27;20505;-77
2023/04/26 03:37:46;;;;;;;8.25;1.38;;;4.30;99.90;;;;;;5110959;27;20043;-77
2023/04/26 03:40:12;;;;;;;5.32;1.30;;;4.60;99.90;;;;;;5093133;27;20050;-76
2023/04/26 03:42:38;;;;;;;6.65;1.55;;;4.10;99.90;;;;;;5111256;27;20058;-76
2023/04/26 03:45:05;;;;;;;7.07;1.60;;;4.10;99.90;;;;;;5110570;27;20051;-76
2023/04/26 03:47:30;;;;;;;12.93;1.70;;;4.10;99.90;;;;;;5093528;27;20043;-76
2023/04/26 03:49:57;;;;;;;7.88;1.70;;;4.00;99.90;;;;;;5110334;27;20058;-76
2023/04/26 03:52:23;;;;;;;8.45;1.30;;;4.00;99.90;;;;;;5110138;27;20047;-77
2023/04/26 03:54:49;;;;;;;7.07;1.17;;;4.00;99.90;;;;;;5129210;27;20050;-76
2023/04/26 03:57:14;;;;;;;3.97;1.15;;;4.80;99.90;;;;;;5093217;27;20050;-76
2023/04/26 03:59:40;;;;;;;4.82;1.30;;;3.90;99.90;;;;;;5128787;27;20054;-76
2023/04/26 04:02:06;;;;;;;8.23;2.22;;;3.90;99.90;;;;;;5092740;27;20039;-76
2023/04/26 04:04:32;;;;;;;8.43;1.33;;;3.90;99.90;;;;;;5110239;27;20126;-76
2023/04/26 04:06:58;;;;;;;4.50;1.30;;;4.00;99.90;;;;;;5092988;27;20086;-76
2023/04/26 04:09:24;;;;;;;3.33;1.25;;;4.20;99.90;;;;;;5093032;27;20047;-76
2023/04/26 04:11:50;;;;;;;3.25;1.30;;;4.10;99.90;;;;;;5093014;27;20081;-76
2023/04/26 04:14:16;;;;;;;1.83;0.70;;;4.10;99.90;;;;;;5092512;27;20100;-76
2023/04/26 04:16:42;;;;;;;4.13;1.10;;;4.10;99.90;;;;;;5128933;27;20043;-77
2023/04/26 04:19:07;;;;;;;4.10;1.00;;;4.20;99.90;;;;;;5127408;27;20130;-76
2023/04/26 04:21:33;;;;;;;6.63;1.30;;;4.20;99.90;;;;;;5109436;27;20051;-77
2023/04/26 04:23:59;;;;;;;7.53;1.23;;;4.20;99.90;;;;;;5092109;27;20075;-77
2023/04/26 04:26:26;;;;;;;7.38;1.23;;;4.30;99.90;;;;;;5109048;27;20078;-76
2023/04/26 04:28:54;;;;;;;6.40;0.95;;;5.70;99.90;;;;;;5109761;27;20039;-76
2023/04/26 04:31:20;;;;;;;5.32;0.70;;;4.30;99.90;;;;;;5092667;27;20506;-76
2023/04/26 04:33:46;;;;;;;5.72;0.98;;;4.40;99.90;;;;;;5108731;27;20055;-76
2023/04/26 04:36:15;;;;;;;3.72;0.93;;;4.60;99.90;;;;;;5092010;27;20190;-76
2023/04/26 04:38:41;;;;;;;5.03;1.10;;;5.10;99.90;;;;;;5109794;27;20050;-76
2023/04/26 04:41:07;;;;;;;5.85;1.38;;;4.40;99.90;;;;;;5109553;27;20047;-76
2023/04/26 04:43:33;;;;;;;8.07;1.40;;;4.50;99.90;;;;;;5127824;27;20103;-76
2023/04/26 04:45:59;;;;;;;7.80;3.53;;;5.80;99.90;;;;;;5109344;27;20035;-76
2023/04/26 04:48:24;;;;;;;4.63;1.60;;;4.70;99.90;;;;;;5109145;27;20035;-76
2023/04/26 04:50:50;;;;;;;7.38;1.35;;;4.70;99.90;;;;;;5109362;27;20031;-76
2023/04/26 04:53:16;;;;;;;5.40;1.20;;;4.80;99.90;;;;;;5108929;27;20427;-76
2023/04/26 04:55:42;;;;;;;9.23;3.60;;;4.80;99.90;;;;;;5127930;27;20039;-76
2023/04/26 04:58:07;;;;;;;10.07;1.77;;;4.90;99.90;;;;;;5108992;27;20046;-76
2023/04/26 05:00:33;;;;;;;11.65;1.35;;;4.90;99.90;;;;;;5127225;27;20533;-77
2023/04/26 05:02:59;;;;;;;3.30;1.30;;;4.90;99.90;;;;;;5127475;27;20039;-76
2023/04/26 05:05:25;;;;;;;3.83;1.60;;;5.50;99.90;;;;;;5127307;27;20079;-77
2023/04/26 05:07:51;;;;;;;3.75;0.93;;;5.00;99.90;;;;;;5109403;27;20400;-77
2023/04/26 05:10:17;;;;;;;6.75;1.10;;;5.70;99.90;;;;;;5126723;27;20103;-78
2023/04/26 05:12:43;;;;;;;11.30;1.17;;;5.10;99.90;;;;;;5108880;27;20078;-76
2023/04/26 05:15:08;;;;;;;6.03;1.35;;;5.10;99.90;;;;;;5091888;27;20067;-77
2023/04/26 05:17:34;;;;;;;8.00;1.40;;;5.10;99.90;;;;;;5127081;27;20398;-76
2023/04/26 05:20:05;;;;;;;4.93;1.45;;;5.50;99.90;;;;;;5109234;27;20042;-77
2023/04/26 05:22:31;;;;;;;12.48;3.67;;;5.40;99.90;;;;;;5074991;27;20039;-78
2023/04/26 05:24:56;;;;;;;5.68;1.42;;;5.10;99.90;;;;;;5127434;27;20039;-84
2023/04/26 05:27:22;;;;;;;9.68;2.97;;;5.10;99.90;;;;;;5126446;27;20043;-76
2023/04/26 05:29:48;;;;;;;5.97;1.70;;;5.10;99.90;;;;;;5127414;27;20046;-79
2023/04/26 05:32:13;;;;;;;9.43;1.20;;;5.80;99.90;;;;;;5126674;27;20486;-76
2023/04/26 05:34:40;;;;;;;6.82;1.40;;;5.00;99.90;;;;;;5104773;28;20135;-76
2023/04/26 05:37:06;;;;;;;3.50;1.02;;;5.00;99.90;;;;;;5106833;28;20378;-77
2023/04/26 05:39:32;;;;;;;4.65;1.92;;;5.00;99.90;;;;;;5104942;28;20379;-77
2023/04/26 05:42:02;;;;;;;7.10;1.45;;;6.20;99.90;;;;;;5105003;28;20050;-77
2023/04/26 05:44:28;;;;;;;4.63;1.33;;;5.20;99.90;;;;;;5105671;28;20478;-78
2023/04/26 05:46:53;;;;;;;5.07;1.70;;;5.30;99.90;;;;;;5105013;28;20043;-77
2023/04/26 05:49:19;;;;;;;6.53;1.73;;;5.40;99.90;;;;;;5105523;28;20118;-77
2023/04/26 05:51:45;;;;;;;5.25;2.13;;;5.60;99.90;;;;;;5106156;28;20044;-77
2023/04/26 05:54:10;;;;;;;5.43;1.23;;;5.70;99.90;;;;;;5106276;28;20040;-76
2023/04/26 05:56:36;;;;;;;3.95;1.13;;;6.30;99.90;;;;;;5104481;28;20071;-76
2023/04/26 05:59:02;;;;;;;7.28;1.50;;;6.00;99.90;;;;;;5105365;28;20044;-76
2023/04/26 06:01:27;;;;;;;4.65;1.58;;;6.00;99.90;;;;;;5105154;28;20445;-76
2023/04/26 06:03:53;;;;;;;6.55;1.33;;;6.00;99.90;;;;;;5071414;28;20058;-76
2023/04/26 06:06:19;;;;;;;7.82;1.15;;;6.20;99.90;;;;;;5086743;28;20462;-76
2023/04/26 06:08:45;;;;;;;3.95;1.17;;;6.00;99.90;;;;;;5106136;28;20040;-76
2023/04/26 06:11:10;;;;;;;9.45;1.40;;;6.20;99.90;;;;;;5104547;28;20107;-77
2023/04/26 06:13:36;;;;;;;5.13;1.40;;;6.10;99.90;;;;;;5103976;28;20544;-76
2023/04/26 06:16:02;;;;;;;6.65;1.23;;;6.10;99.90;;;;;;5105655;28;20126;-76
2023/04/26 06:18:28;;;;;;;6.05;1.58;;;6.20;99.90;;;;;;5103540;28;20055;-76
2023/04/26 06:20:54;;;;;;;6.88;1.33;;;7.10;99.90;;;;;;5087793;28;20090;-75
2023/04/26 06:23:19;;;;;;;4.53;1.63;;;6.30;99.90;;;;;;5104872;28;20062;-76
2023/04/26 06:25:45;;;;;;;5.80;1.13;;;6.70;99.90;;;;;;5104395;28;20085;-78
2023/04/26 06:28:11;;;;;;;8.55;1.30;;;6.90;99.90;;;;;;5104254;28;20047;-75
2023/04/26 06:30:37;;;;;;;9.32;2.10;;;7.30;99.90;;;;;;5104242;28;20035;-77
2023/04/26 06:33:03;;;;;;;5.85;1.48;;;7.30;99.90;;;;;;5105531;28;20056;-75
2023/04/26 06:35:28;;;;;;;9.27;1.58;;;7.50;99.90;;;;;;5086541;28;20408;-78
2023/04/26 06:37:54;;;;;;;9.13;1.30;;;8.20;99.90;;;;;;5104121;28;20112;-75
2023/04/26 06:40:20;;;;;;;5.03;1.08;;;7.70;99.90;;;;;;5104640;28;20375;-75
2023/04/26 06:42:46;;;;;;;9.73;1.40;;;7.80;99.90;;;;;;5087547;28;20039;-77
2023/04/26 06:45:12;;;;;;;5.70;1.45;;;7.90;99.90;;;;;;5104066;28;20119;-78
2023/04/26 06:47:39;;;;;;;11.00;1.58;;;8.00;99.90;;;;;;5105201;28;20055;-78
2023/04/26 06:50:05;;;;;;;9.10;1.10;;;7.90;99.90;;;;;;5104324;28;20439;-78
2023/04/26 06:52:31;;;;;;;4.32;1.05;;;7.90;99.90;;;;;;5103342;28;20069;-77
2023/04/26 06:54:59;;;;;;;4.05;1.10;;;7.90;99.90;;;;;;5105383;28;20035;-78
2023/04/26 06:57:25;;;;;;;6.05;1.83;;;8.10;99.90;;;;;;5103984;28;20039;-77
2023/04/26 06:59:51;;;;;;;4.82;0.75;;;8.20;99.90;;;;;;5104474;28;20050;-77
2023/04/26 07:02:17;;;;;;;9.63;1.40;;;9.50;99.90;;;;;;5103239;28;20043;-78
2023/04/26 07:04:42;;;;;;;7.45;1.17;;;8.30;99.90;;;;;;5103488;28;20098;-78
2023/04/26 07:07:08;;;;;;;4.25;1.00;;;9.40;99.90;;;;;;5070019;28;20079;-76
2023/04/26 07:09:34;;;;;;;7.47;1.17;;;8.20;99.90;;;;;;5103728;28;20043;-76
2023/04/26 07:12:00;;;;;;;11.88;1.13;;;8.20;99.90;;;;;;5103721;28;20043;-75
2023/04/26 07:14:26;;;;;;;5.30;1.17;;;8.30;99.90;;;;;;5104475;28;20040;-77
2023/04/26 07:16:51;;;;;;;6.22;1.65;;;9.40;99.90;;;;;;5103946;28;20054;-76
2023/04/26 07:19:17;;;;;;;5.45;1.17;;;9.50;99.90;;;;;;5086527;28;20051;-77
2023/04/26 07:21:42;;;;;;;6.63;1.48;;;8.30;99.90;;;;;;5103679;28;20478;-77
2023/04/26 07:24:08;;;;;;;7.80;1.10;;;8.30;99.90;;;;;;5086931;28;20038;-77
2023/04/26 07:26:35;;;;;;;7.75;1.45;;;8.30;99.90;;;;;;5102967;28;20093;-76
2023/04/26 07:29:01;;;;;;;16.48;1.30;;;8.40;99.90;;;;;;5087408;28;20685;-76
2023/04/26 07:31:27;;;;;;;6.78;1.13;;;8.40;99.90;;;;;;5104228;28;20563;-76
2023/04/26 07:33:52;;;;;;;7.35;1.55;;;8.50;99.90;;;;;;5105989;27;20047;-77
2023/04/26 07:36:18;;;;;;;10.32;2.47;;;8.60;99.90;;;;;;5106078;28;20552;-76
2023/04/26 07:38:44;;;;;;;10.82;1.35;;;8.80;99.90;;;;;;5106800;28;20051;-76
2023/04/26 07:41:11;;;;;;;8.60;1.48;;;9.00;99.90;;;;;;5106476;28;20039;-77
2023/04/26 07:43:37;;;;;;;7.20;1.30;;;9.20;99.90;;;;;;5124958;28;20051;-76
2023/04/26 07:46:03;;;;;;;5.95;1.45;;;9.40;99.90;;;;;;5106883;28;20035;-77
2023/04/26 07:48:29;;;;;;;5.78;1.30;;;9.50;99.90;;;;;;5106283;28;20055;-77
2023/04/26 07:50:55;;;;;;;6.72;0.93;;;9.60;99.90;;;;;;5073175;28;20097;-77
2023/04/26 07:53:21;;;;;;;3.50;1.30;;;9.70;99.90;;;;;;5105799;28;20051;-78
2023/04/26 07:55:48;;;;;;;5.47;1.40;;;9.60;99.90;;;;;;5089934;28;20224;-77
2023/04/26 07:58:14;;;;;;;8.88;2.88;;;9.60;99.90;;;;;;5106594;28;20114;-79
2023/04/26 08:00:40;;;;;;;10.82;1.40;;;9.80;99.90;;;;;;5106348;28;20134;-79
2023/04/26 08:03:07;;;;;;;6.13;1.08;;;9.90;99.90;;;;;;5106820;28;20112;-79
2023/04/26 08:05:33;;;;;;;15.90;2.75;;;10.10;99.90;;;;;;5089661;28;20402;-77
2023/04/26 08:08:00;;;;;;;7.00;1.13;;;10.20;99.90;;;;;;5108258;27;20039;-76
2023/04/26 08:10:26;;;;;;;6.30;0.98;;;10.30;99.90;;;;;;5109959;27;20047;-80
2023/04/26 08:12:52;;;;;;;9.90;1.50;;;10.20;99.90;;;;;;5110493;27;20051;-79
2023/04/26 08:15:18;;;;;;;5.07;1.48;;;10.50;99.90;;;;;;5109843;27;20043;-76
2023/04/26 08:17:44;;;;;;;11.73;1.27;;;9.90;99.90;;;;;;5128646;27;20057;-76
2023/04/26 08:20:10;;;;;;;4.78;1.50;;;9.80;99.90;;;;;;5110309;27;20047;-77
2023/04/26 08:22:36;;;;;;;10.30;1.40;;;9.90;99.90;;;;;;5109380;27;20512;-76
2023/04/26 08:25:03;;;;;;;9.57;1.83;;;10.00;99.90;;;;;;5128915;27;20035;-76
2023/04/26 08:27:30;;;;;;;13.30;1.35;;;10.20;99.90;;;;;;5127360;27;20126;-77
2023/04/26 08:29:56;;;;;;;5.57;1.77;;;10.30;99.90;;;;;;5128746;27;20092;-78
2023/04/26 08:32:22;;;;;;;6.45;0.95;;;10.40;99.90;;;;;;5109141;27;20047;-77
2023/04/26 08:34:47;;;;;;;9.55;1.45;;;10.30;99.90;;;;;;5128156;27;20051;-78
2023/04/26 08:37:13;;;;;;;7.45;1.08;;;10.30;99.90;;;;;;5109739;27;20048;-78
2023/04/26 08:39:40;;;;;;;13.73;2.13;;;10.40;99.90;;;;;;5127670;27;20047;-77
2023/04/26 08:42:14;;;;;;;11.02;1.80;;;10.50;99.90;;;;;;5093062;27;20088;-77
2023/04/26 08:44:45;;;;;;;9.25;1.67;;;10.70;99.90;;;;;;5127550;27;20389;-77
2023/04/26 08:47:37;;;;;;;5.53;0.80;;;10.90;99.90;;;;;;5110158;27;20051;-78
2023/04/26 08:50:04;;;;;;;8.00;1.23;;;10.70;99.90;;;;;;5109545;27;20055;-77
2023/04/26 08:52:31;;;;;;;5.13;0.88;;;10.30;99.90;;;;;;5127320;27;20447;-77
2023/04/26 08:54:58;;;;;;;3.80;1.17;;;10.00;99.90;;;;;;5128689;27;20099;-77
2023/04/26 08:57:25;;;;;;;6.32;0.93;;;9.80;99.90;;;;;;5126853;27;20099;-77
2023/04/26 08:59:52;;;;;;;9.07;1.02;;;9.60;99.90;;;;;;5128522;27;20476;-78
2023/04/26 09:02:22;;;;;;;5.88;1.23;;;9.60;99.90;;;;;;5109327;27;20122;-77
2023/04/26 09:04:49;;;;;;;2.85;0.68;;;9.60;99.90;;;;;;5127861;27;20051;-77
2023/04/26 09:07:20;;;;;;;16.88;1.20;;;9.70;99.90;;;;;;5127665;27;20047;-76
2023/04/26 09:09:51;;;;;;;4.05;1.40;;;10.00;99.90;;;;;;5127373;27;20089;-77
2023/04/26 09:12:19;;;;;;;10.43;1.27;;;10.00;99.90;;;;;;5109829;27;20409;-77
2023/04/26 09:14:46;;;;;;;8.73;1.10;;;10.20;99.90;;;;;;5108325;27;20087;-79
2023/04/26 09:17:32;;;;;;;6.68;1.08;;;10.10;99.90;;;;;;5108881;27;20051;-78
2023/04/26 09:19:59;;;;;;;8.35;1.00;;;10.00;99.90;;;;;;5092275;27;20051;-79
2023/04/26 09:22:36;;;;;;;6.85;1.27;;;10.00;99.90;;;;;;5126741;27;20401;-78
2023/04/26 09:25:03;;;;;;;7.43;2.03;;;10.10;99.90;;;;;;5128108;27;20066;-78
2023/04/26 09:27:36;;;;;;;5.95;1.30;;;9.90;99.90;;;;;;5107745;27;20061;-75
2023/04/26 09:30:05;;;;;;;;;;;9.80;99.90;;;;;;5128058;27;20078;-76
2023/04/26 09:32:49;;;;;;;8.10;1.40;;;9.80;99.90;;;;;;5126524;27;19967;-76
2023/04/26 09:35:23;;;;;;;7.35;1.40;;;9.70;99.90;;;;;;5107918;27;20174;-76
2023/04/26 09:37:57;;;;;;;10.00;2.75;;;9.70;99.90;;;;;;5109225;27;20734;-76
2023/04/26 09:40:25;;;;;;;9.30;1.67;;;9.60;99.90;;;;;;5091031;27;20955;-76
2023/04/26 09:43:06;;;;;;;28.13;2.03;;;9.60;99.90;;;;;;5109045;27;20047;-76
2023/04/26 09:45:41;;;;;;;5.28;1.20;;;9.70;99.90;;;;;;5092090;27;20051;-77
2023/04/26 09:48:25;;;;;;;3.85;1.20;;;9.80;99.90;;;;;;5126179;27;20059;-77
2023/04/26 09:51:10;;;;;;;8.88;1.45;;;9.90;99.90;;;;;;5108764;27;20047;-77
2023/04/26 09:53:45;;;;;;;10.23;1.50;;;10.10;99.90;;;;;;5107564;27;20084;-78
2023/04/26 09:56:15;;;;;;;10.68;1.80;;;10.30;99.90;;;;;;5091398;27;20057;-78
2023/04/26 09:58:47;;;;;;;7.20;0.80;;;10.50;99.90;;;;;;5108525;27;20047;-77
2023/04/26 10:01:17;;;;;;;6.22;1.33;;;10.50;99.90;;;;;;5106610;27;20515;-77
2023/04/26 10:03:44;;;;;;;4.93;0.82;;;10.60;99.90;;;;;;5074435;27;20057;-78
2023/04/26 10:06:11;;;;;;;11.85;1.35;;;10.70;99.90;;;;;;5089784;27;20038;-77
2023/04/26 10:08:37;;;;;;;1.70;0.50;;;11.00;99.90;;;;;;5107607;27;20047;-78
2023/04/26 10:11:06;;;;;;;5.88;0.90;;;11.20;99.90;;;;;;5107416;27;20043;-78
2023/04/26 10:13:32;;;;;;;4.93;0.70;;;11.30;99.90;;;;;;5106936;27;20055;-78
2023/04/26 10:16:01;;;;;;;7.65;0.82;;;11.30;99.90;;;;;;5126566;27;20431;-76
2023/04/26 10:18:30;;;;;;;7.50;0.98;;;11.30;99.90;;;;;;5125503;27;20043;-78
2023/04/26 10:21:09;;;;;;;3.28;0.80;;;11.30;99.90;;;;;;5126135;27;20504;-77
2023/04/26 10:23:36;;;;;;;9.27;0.90;;;11.30;99.90;;;;;;5125629;27;20039;-77
2023/04/26 10:26:02;;;;;;;2.83;0.40;;;11.20;99.90;;;;;;5125289;27;20044;-77
2023/04/26 10:28:40;;;;;;;4.05;0.50;;;11.20;99.90;;;;;;5125836;27;20050;-77
2023/04/26 10:31:06;;;;;;;8.57;0.93;;;11.30;99.90;;;;;;5124360;27;20067;-77
2023/04/26 10:33:32;;;;;;;5.75;0.60;;;11.50;99.90;;;;;;5125848;27;20455;-77
2023/04/26 10:36:12;;;;;;;5.88;0.50;;;11.70;99.90;;;;;;5124074;27;20138;-78
2023/04/26 10:38:40;;;;;;;9.70;0.80;;;11.90;99.90;;;;;;5125916;27;20047;-77
2023/04/26 10:41:35;;;;;;;8.55;0.82;;;11.90;99.90;;;;;;5106992;27;20079;-77
2023/04/26 10:44:32;;;;;;;6.22;0.68;;;11.60;99.90;;;;;;5124865;27;20035;-76
2023/04/26 10:47:00;;;;;;;6.25;2.05;;;11.20;99.90;;;;;;5107416;27;20057;-77
2023/04/26 10:49:26;;;;;;;3.75;0.75;;;11.00;99.90;;;;;;5125112;27;20644;-76
2023/04/26 10:52:10;;;;;;;5.40;0.75;;;10.80;99.90;;;;;;5073860;27;20078;-76
2023/04/26 10:54:49;;;;;;;3.75;0.90;;;10.60;99.90;;;;;;5090408;28;20043;-75
2023/04/26 10:57:16;;;;;;;3.17;0.70;;;10.40;99.90;;;;;;5124915;28;20043;-75
2023/04/26 11:00:09;;;;;;;4.82;0.80;;;10.80;99.90;;;;;;5090577;28;20047;-76
2023/04/26 11:02:54;;;;;;;6.00;0.80;;;10.20;99.90;;;;;;5125530;28;20416;-78
2023/04/26 11:05:46;;;;;;;5.57;0.95;;;10.20;99.90;;;;;;5107043;28;20066;-75
2023/04/26 11:08:24;;;;;;;3.75;0.70;;;10.30;99.90;;;;;;5126164;28;20035;-75
2023/04/26 11:11:11;;;;;;;3.80;0.60;;;10.20;99.90;;;;;;5106300;28;20134;-75
2023/04/26 11:13:39;;;;;;;3.38;0.50;;;10.20;99.90;;;;;;5125226;28;20047;-75
2023/04/26 11:16:10;;;;;;;2.63;0.50;;;10.40;99.90;;;;;;5107999;28;20051;-75
2023/04/26 11:18:39;;;;;;;3.95;0.73;;;10.80;99.90;;;;;;5106294;28;20130;-76
2023/04/26 11:21:05;;;;;;;3.20;0.75;;;11.10;99.90;;;;;;5125982;28;20130;-76
2023/04/26 11:23:32;;;;;;;2.35;0.60;;;11.10;99.90;;;;;;5125111;28;20092;-76
2023/04/26 11:26:02;;;;;;;4.20;1.00;;;11.30;99.90;;;;;;5107463;28;20100;-75
2023/04/26 11:28:30;;;;;;;6.20;0.68;;;11.60;99.90;;;;;;5125704;28;20051;-74
2023/04/26 11:30:56;;;;;;;7.68;0.93;;;11.70;99.90;;;;;;5089383;28;20526;-74
2023/04/26 11:33:22;;;;;;;3.72;0.80;;;11.90;99.90;;;;;;5090160;28;20078;-75
2023/04/26 11:35:49;;;;;;;2.63;0.70;;;12.00;99.90;;;;;;5088874;28;20093;-75
2023/04/26 11:38:15;;;;;;;5.63;1.20;;;12.10;99.90;;;;;;5107356;28;20051;-74
2023/04/26 11:40:41;;;;;;;5.70;0.65;;;12.10;99.90;;;;;;5106826;28;20092;-76
2023/04/26 11:43:08;;;;;;;3.75;0.73;;;12.20;99.90;;;;;;5128426;27;20050;-75
2023/04/26 11:45:36;;;;;;;6.60;0.80;;;12.20;99.90;;;;;;5129254;27;20027;-75
2023/04/26 11:48:04;;;;;;;4.15;0.82;;;12.20;99.90;;;;;;5129012;27;20039;-75
2023/04/26 11:50:32;;;;;;;5.05;0.73;;;12.30;99.90;;;;;;5111286;27;20050;-78
2023/04/26 11:53:00;;;;;;;4.22;0.82;;;12.20;99.90;;;;;;5109653;27;20140;-75
2023/04/26 11:55:31;;;;;;;9.20;0.95;;;12.00;99.90;;;;;;5110949;27;20043;-75
2023/04/26 11:57:58;;;;;;;10.88;1.50;;;11.90;99.90;;;;;;5110235;27;20058;-75
2023/04/26 12:00:25;;;;;;;5.28;1.15;;;11.90;99.90;;;;;;5110885;27;20080;-75
2023/04/26 12:02:51;;;;;;;6.35;0.80;;;11.80;99.90;;;;;;5129169;27;20046;-77
2023/04/26 12:05:25;;;;;;;6.15;0.60;;;11.90;99.90;;;;;;5110111;27;20050;-75
2023/04/26 12:07:55;;;;;;;4.68;0.77;;;11.80;99.90;;;;;;5110617;27;20489;-75
2023/04/26 12:10:26;;;;;;;3.90;0.90;;;12.00;99.90;;;;;;5109388;27;20047;-75
2023/04/26 12:12:58;;;;;;;7.90;0.77;;;12.40;99.90;;;;;;5129114;27;20050;-76
2023/04/26 12:15:33;;;;;;;3.25;0.65;;;12.60;99.90;;;;;;5110438;27;20386;-76
2023/04/26 12:18:08;;;;;;;7.25;0.90;;;12.60;99.90;;;;;;5128241;27;20405;-75
2023/04/26 12:20:39;;;;;;;6.85;1.20;;;12.50;99.90;;;;;;5129539;27;20046;-75
2023/04/26 12:23:10;;;;;;;8.23;0.85;;;12.60;99.90;;;;;;5109794;27;20455;-75
2023/04/26 12:25:38;;;;;;;2.42;1.05;;;12.80;99.90;;;;;;5110624;27;20383;-77
2023/04/26 12:28:07;;;;;;;13.38;1.13;;;12.80;99.90;;;;;;5109931;27;20447;-75
2023/04/26 12:30:33;;;;;;;5.10;0.80;;;13.10;99.90;;;;;;5128167;27;20103;-75
2023/04/26 12:32:59;;;;;;;8.25;0.80;;;13.10;99.40;;;;;;5128739;27;20039;-75
2023/04/26 12:35:25;;;;;;;3.80;0.80;;;12.80;99.30;;;;;;5109024;27;20050;-75
2023/04/26 12:37:55;;;;;;;3.83;0.80;;;12.40;99.50;;;;;;5093289;27;20130;-75
2023/04/26 12:40:22;;;;;;;6.82;0.90;;;12.20;99.50;;;;;;5109087;27;20536;-75
2023/04/26 12:42:49;;;;;;;7.00;0.80;;;12.00;99.70;;;;;;5093442;27;20047;-76
2023/04/26 12:45:17;;;;;;;6.03;1.27;;;11.90;99.70;;;;;;5092191;27;20039;-75
2023/04/26 12:47:44;;;;;;;2.60;0.63;;;11.80;99.60;;;;;;5076448;27;20039;-76
2023/04/26 12:50:11;;;;;;;7.60;1.00;;;11.70;99.80;;;;;;5109454;27;20054;-75
2023/04/26 12:52:38;;;;;;;6.78;1.42;;;11.60;99.70;;;;;;5092361;27;20390;-75
2023/04/26 12:55:06;;;;;;;8.85;1.17;;;11.60;99.80;;;;;;5108711;27;20039;-75